createdAt,value
2022-10-23T09:44:17.496Z,10.73
2022-10-23T09:49:24.509Z,10.70
2022-10-23T09:54:26.588Z,11.30
2022-10-23T09:59:34.510Z,11.63
2022-10-23T10:04:38.564Z,12.95
2022-10-23T10:09:40.708Z,11.70
2022-10-23T10:15:05.037Z,11.93
2022-10-23T10:20:07.313Z,11.40
2022-10-23T10:25:34.165Z,10.10
2022-10-23T10:30:42.297Z,10.30
2022-10-23T10:36:00.796Z,10.00
2022-10-23T10:41:05.756Z,10.50
2022-10-23T10:46:37.150Z,10.63
2022-10-23T10:52:01.334Z,10.15
2022-10-23T10:57:05.404Z,10.82
2022-10-23T11:02:13.752Z,9.50
2022-10-23T11:07:19.178Z,10.43
2022-10-23T11:12:26.547Z,9.18
2022-10-23T11:17:40.000Z,9.27
2022-10-23T11:23:21.238Z,8.55
2022-10-23T11:29:01.064Z,8.38
2022-10-23T11:34:08.892Z,8.43
2022-10-23T11:39:31.976Z,9.50
2022-10-23T11:44:45.005Z,9.80
2022-10-23T11:54:40.590Z,11.20
2022-10-23T11:59:45.394Z,12.13
2022-10-23T12:04:50.670Z,12.05
2022-10-23T12:09:59.449Z,12.98
2022-10-23T12:15:12.112Z,11.60
2022-10-23T12:20:14.072Z,10.52
2022-10-23T12:25:42.155Z,10.45
2022-10-23T12:31:02.889Z,10.30
2022-10-23T12:36:15.974Z,10.03
2022-10-23T12:41:29.659Z,11.57
2022-10-23T12:46:33.177Z,11.02
2022-10-23T12:51:35.785Z,11.93
2022-10-23T12:56:39.018Z,12.02
2022-10-23T13:01:43.296Z,11.38
2022-10-23T13:06:45.979Z,12.10
2022-10-23T13:11:49.369Z,10.95
2022-10-23T13:17:03.135Z,12.02
2022-10-23T13:22:18.524Z,11.97
2022-10-23T13:27:34.194Z,11.23
2022-10-23T13:32:36.272Z,10.77
2022-10-23T13:42:53.318Z,9.10
2022-10-23T13:47:55.471Z,8.43
2022-10-23T13:52:58.395Z,9.63
2022-10-23T13:58:00.444Z,9.07
2022-10-23T14:03:02.479Z,8.30
2022-10-23T14:08:04.535Z,8.32
2022-10-23T14:13:06.771Z,7.73
2022-10-23T14:18:08.944Z,8.87
2022-10-23T14:23:11.022Z,8.23
2022-10-23T14:28:13.089Z,8.85
2022-10-23T14:33:16.723Z,9.10
2022-10-23T14:38:18.766Z,8.80
2022-10-23T14:43:21.913Z,8.70
2022-10-23T14:48:23.928Z,9.13
2022-10-23T14:53:25.931Z,8.02
2022-10-23T14:58:28.472Z,8.98
2022-10-23T15:03:30.736Z,8.70
2022-10-23T15:08:33.529Z,9.03
2022-10-23T15:13:35.520Z,9.20
2022-10-23T15:23:46.011Z,10.03
2022-10-23T15:28:53.307Z,9.77
2022-10-23T15:33:58.706Z,9.63
2022-10-23T15:39:01.035Z,10.00
2022-10-23T15:44:05.244Z,9.52
2022-10-23T15:49:08.554Z,8.93
2022-10-23T15:54:18.994Z,9.23
2022-10-23T15:59:24.547Z,9.13
2022-10-23T16:04:26.560Z,9.43
2022-10-23T16:09:29.752Z,9.30
2022-10-23T16:14:31.744Z,9.13
2022-10-23T16:19:34.270Z,9.32
2022-10-23T16:24:36.412Z,9.95
2022-10-23T16:29:38.416Z,9.87
2022-10-23T16:34:40.459Z,10.27
2022-10-23T16:39:42.431Z,10.15
2022-10-23T16:44:44.437Z,9.60
2022-10-23T16:49:46.452Z,8.57
2022-10-23T16:54:48.457Z,7.40
2022-10-23T16:59:50.458Z,7.05
2022-10-23T17:04:52.535Z,6.10
2022-10-23T17:09:54.552Z,4.35
2022-10-23T17:14:56.594Z,3.70
2022-10-23T17:19:58.639Z,2.83
2022-10-23T17:25:00.674Z,2.92
2022-10-23T17:30:02.831Z,2.85
2022-10-23T17:35:06.501Z,2.73
2022-10-23T17:40:09.120Z,3.00
2022-10-23T17:45:11.362Z,2.83
2022-10-23T17:50:13.910Z,2.95
2022-10-23T17:55:15.965Z,2.90
2022-10-23T18:00:18.047Z,3.00
2022-10-23T18:05:20.220Z,2.97
2022-10-23T18:10:22.254Z,3.30
2022-10-23T18:15:24.254Z,3.10
2022-10-23T18:20:26.265Z,3.00
2022-10-23T18:25:28.298Z,3.47
2022-10-23T18:30:30.368Z,4.13
2022-10-23T18:35:35.863Z,4.20
2022-10-23T18:40:38.340Z,4.53
2022-10-23T18:45:42.661Z,4.73
2022-10-23T18:50:44.646Z,4.95
2022-10-23T18:55:50.974Z,4.97
2022-10-23T19:00:53.021Z,5.37
2022-10-23T19:05:55.028Z,5.40
2022-10-23T19:11:00.193Z,5.55
2022-10-23T19:16:06.022Z,5.20
2022-10-23T19:21:08.204Z,5.63
2022-10-23T19:26:13.345Z,5.75
2022-10-23T19:31:16.048Z,5.85
2022-10-23T19:36:21.009Z,6.20
